createdAt,value
2017-11-22T00:01:37.001Z,11.84
2017-11-22T00:04:05.377Z,11.92
2017-11-22T00:06:33.783Z,12.00
2017-11-22T00:09:02.180Z,12.35
2017-11-22T00:11:30.561Z,12.47
2017-11-22T00:13:59.141Z,12.16
2017-11-22T00:16:28.294Z,12.17
2017-11-22T00:18:56.670Z,12.29
2017-11-22T00:21:25.102Z,12.24
2017-11-22T00:23:54.220Z,12.09
2017-11-22T00:26:23.368Z,12.28
2017-11-22T00:28:51.817Z,12.16
2017-11-22T00:31:20.215Z,12.24
2017-11-22T00:33:48.597Z,12.24
2017-11-22T00:36:17.100Z,12.25
2017-11-22T00:38:45.485Z,12.36
2017-11-22T00:41:13.872Z,12.58
2017-11-22T00:43:43.077Z,12.32
2017-11-22T00:46:11.465Z,12.46
2017-11-22T00:48:40.622Z,12.30
2017-11-22T00:51:09.038Z,12.34
2017-11-22T00:53:38.189Z,12.52
2017-11-22T00:56:06.572Z,12.57
2017-11-22T00:58:35.207Z,12.49
2017-11-22T01:01:04.349Z,12.60
2017-11-22T01:03:32.729Z,12.58
2017-11-22T01:06:01.151Z,12.70
2017-11-22T01:08:30.329Z,12.59
2017-11-22T01:10:58.733Z,12.24
2017-11-22T01:13:27.157Z,12.34
2017-11-22T01:15:55.544Z,12.43
2017-11-22T01:18:23.964Z,12.47
2017-11-22T01:20:52.552Z,12.53
2017-11-22T01:23:20.951Z,12.60
2017-11-22T01:25:50.105Z,12.73
2017-11-22T01:28:19.019Z,12.67
2017-11-22T01:30:47.405Z,12.45
2017-11-22T01:33:15.795Z,12.43
2017-11-22T01:35:44.251Z,12.58
2017-11-22T01:38:12.635Z,12.58
2017-11-22T01:40:41.013Z,12.45
2017-11-22T01:43:09.569Z,12.26
2017-11-22T01:45:37.971Z,12.26
2017-11-22T01:48:06.336Z,12.26
2017-11-22T01:50:34.760Z,12.51
2017-11-22T01:53:03.903Z,12.47
2017-11-22T01:55:32.308Z,12.22
2017-11-22T01:58:00.716Z,12.09
2017-11-22T02:00:46.764Z,11.95
2017-11-22T02:03:19.175Z,12.16
2017-11-22T02:05:48.329Z,12.26
2017-11-22T02:08:16.742Z,12.45
2017-11-22T02:10:45.160Z,12.05
2017-11-22T02:13:13.569Z,12.08
2017-11-22T02:15:41.942Z,12.34
2017-11-22T02:18:10.356Z,12.06
2017-11-22T02:20:38.731Z,12.22
2017-11-22T02:23:07.128Z,12.26
2017-11-22T02:25:36.092Z,12.13
2017-11-22T02:28:04.484Z,12.17
2017-11-22T02:30:33.382Z,11.95
2017-11-22T02:33:01.805Z,11.85
2017-11-22T02:35:30.185Z,11.84
2017-11-22T02:37:58.575Z,11.86
2017-11-22T02:40:26.994Z,11.99
2017-11-22T02:42:55.384Z,11.68
2017-11-22T02:45:23.795Z,11.77
2017-11-22T02:47:52.325Z,11.59
2017-11-22T02:50:20.714Z,11.74
2017-11-22T02:52:49.109Z,11.66
2017-11-22T02:55:17.516Z,11.54
2017-11-22T02:57:46.661Z,11.65
2017-11-22T03:00:15.040Z,11.71
2017-11-22T03:02:43.436Z,11.66
2017-11-22T03:05:11.808Z,11.84
2017-11-22T03:07:40.202Z,11.93
2017-11-22T03:10:09.284Z,11.62
2017-11-22T03:12:37.666Z,11.65
2017-11-22T03:15:06.028Z,11.77
2017-11-22T03:17:34.435Z,11.50
2017-11-22T03:20:03.592Z,11.63
2017-11-22T03:22:31.969Z,11.65
2017-11-22T03:25:00.392Z,11.61
2017-11-22T03:27:28.776Z,11.80
2017-11-22T03:29:57.157Z,11.62
2017-11-22T03:32:26.714Z,11.52
2017-11-22T03:34:55.095Z,11.56
2017-11-22T03:37:23.494Z,11.59
2017-11-22T03:39:52.827Z,11.77
2017-11-22T03:42:21.781Z,11.75
2017-11-22T03:44:50.166Z,11.78
2017-11-22T03:47:18.604Z,11.84
2017-11-22T03:49:53.041Z,11.67
2017-11-22T03:52:27.362Z,11.76
2017-11-22T03:54:55.971Z,11.63
2017-11-22T03:57:24.344Z,11.78
2017-11-22T03:59:52.985Z,11.87
2017-11-22T04:02:25.825Z,11.73
2017-11-22T04:04:54.593Z,11.52
2017-11-22T04:07:22.981Z,11.55
2017-11-22T04:09:51.373Z,11.66
2017-11-22T04:12:20.353Z,11.80
2017-11-22T04:14:48.743Z,11.96
2017-11-22T04:17:17.595Z,11.79
2017-11-22T04:19:51.683Z,11.91
2017-11-22T04:22:20.842Z,11.85
2017-11-22T04:24:49.241Z,11.73
2017-11-22T04:27:17.662Z,11.53
2017-11-22T04:29:46.044Z,11.84
2017-11-22T04:32:14.457Z,11.83
2017-11-22T04:34:42.932Z,11.84
2017-11-22T04:37:11.311Z,11.87
2017-11-22T04:39:39.707Z,11.73
2017-11-22T04:42:08.121Z,11.56
2017-11-22T04:44:36.503Z,11.68
2017-11-22T04:47:05.654Z,11.57
2017-11-22T04:49:34.108Z,11.58
2017-11-22T04:52:02.505Z,11.67
2017-11-22T04:54:31.103Z,11.65
2017-11-22T04:56:59.664Z,11.56
2017-11-22T04:59:28.040Z,11.75
2017-11-22T05:01:56.417Z,11.61
2017-11-22T05:04:24.850Z,11.82
2017-11-22T05:06:53.229Z,11.92
2017-11-22T05:09:21.610Z,11.60
2017-11-22T05:11:50.081Z,11.67
2017-11-22T05:14:18.470Z,11.80
2017-11-22T05:16:46.856Z,12.03
2017-11-22T05:19:15.347Z,11.95
2017-11-22T05:21:43.725Z,11.97
2017-11-22T05:24:12.873Z,11.86
2017-11-22T05:26:41.302Z,11.79
2017-11-22T05:29:10.453Z,11.74
2017-11-22T05:31:39.803Z,11.70
2017-11-22T05:34:08.999Z,11.78
2017-11-22T05:36:38.146Z,11.64
2017-11-22T05:39:06.530Z,11.77
2017-11-22T05:41:35.006Z,11.83
2017-11-22T05:44:03.381Z,11.59
2017-11-22T05:46:31.757Z,11.71
2017-11-22T05:49:00.192Z,11.72
2017-11-22T05:51:29.144Z,11.66
2017-11-22T05:53:57.514Z,11.64
2017-11-22T05:56:25.929Z,11.98
2017-11-22T05:58:54.320Z,12.01
2017-11-22T06:01:22.704Z,12.00
2017-11-22T06:03:51.430Z,11.64
2017-11-22T06:06:19.822Z,11.60
2017-11-22T06:08:48.223Z,11.58
2017-11-22T06:11:16.656Z,11.56
2017-11-22T06:13:45.051Z,11.81
2017-11-22T06:16:13.432Z,11.42
2017-11-22T06:18:41.837Z,11.43
2017-11-22T06:21:10.217Z,11.51
2017-11-22T06:23:39.087Z,11.62
2017-11-22T06:26:07.728Z,11.78
2017-11-22T06:28:36.111Z,11.69
2017-11-22T06:31:04.504Z,11.66
2017-11-22T06:33:35.970Z,11.74
2017-11-22T06:36:04.360Z,11.70
2017-11-22T06:38:32.738Z,11.52
2017-11-22T06:41:01.198Z,11.56
2017-11-22T06:43:29.572Z,11.48
2017-11-22T06:45:58.715Z,11.52
2017-11-22T06:48:28.135Z,11.69
2017-11-22T06:50:56.544Z,11.62
2017-11-22T06:53:24.928Z,11.65
2017-11-22T06:55:54.108Z,11.56
2017-11-22T06:58:22.504Z,11.84
2017-11-22T07:00:51.664Z,11.71
2017-11-22T07:03:25.484Z,11.77
2017-11-22T07:05:54.679Z,11.71
2017-11-22T07:08:23.086Z,11.99
2017-11-22T07:10:51.658Z,11.85
2017-11-22T07:13:20.044Z,12.24
2017-11-22T07:15:54.752Z,12.00
2017-11-22T07:18:23.140Z,12.09
2017-11-22T07:20:51.523Z,11.89
2017-11-22T07:23:20.734Z,11.81
2017-11-22T07:25:49.908Z,11.92
2017-11-22T07:28:18.297Z,12.17
2017-11-22T07:30:46.991Z,12.32
2017-11-22T07:33:16.409Z,12.24
2017-11-22T07:35:52.137Z,12.44
2017-11-22T07:38:20.514Z,12.30
2017-11-22T07:40:48.917Z,12.34
2017-11-22T07:43:17.361Z,12.48
2017-11-22T07:45:45.755Z,12.36
2017-11-22T07:48:16.122Z,12.62
2017-11-22T07:50:46.783Z,12.44
2017-11-22T07:53:15.173Z,12.33
2017-11-22T07:55:43.567Z,12.26
2017-11-22T07:58:12.064Z,12.25
2017-11-22T08:00:41.217Z,12.05
2017-11-22T08:03:09.616Z,12.06
2017-11-22T08:05:38.036Z,12.38
2017-11-22T08:08:06.428Z,12.38
2017-11-22T08:10:34.809Z,12.54
2017-11-22T08:13:04.908Z,12.63
2017-11-22T08:15:34.072Z,12.54
2017-11-22T08:18:02.484Z,12.64
2017-11-22T08:20:34.043Z,12.44
2017-11-22T08:23:03.213Z,12.32
2017-11-22T08:25:31.599Z,12.33
2017-11-22T08:28:00.026Z,12.21
2017-11-22T08:30:28.417Z,12.18
2017-11-22T08:32:57.061Z,12.22
2017-11-22T08:35:25.589Z,12.45
2017-11-22T08:37:54.905Z,12.44
2017-11-22T08:40:23.296Z,12.59
2017-11-22T08:42:57.147Z,12.42
2017-11-22T08:45:26.297Z,12.57
2017-11-22T08:47:54.726Z,12.47
2017-11-22T08:50:23.158Z,12.49
2017-11-22T08:52:51.552Z,12.56
2017-11-22T08:55:25.550Z,12.65
2017-11-22T08:57:59.445Z,12.42
2017-11-22T09:00:27.897Z,12.42
2017-11-22T09:02:59.093Z,12.61
2017-11-22T09:05:41.863Z,12.67
2017-11-22T09:08:10.256Z,12.58
2017-11-22T09:10:38.654Z,12.77
2017-11-22T09:13:07.299Z,12.71
2017-11-22T09:15:35.722Z,12.54
2017-11-22T09:18:07.136Z,12.33
2017-11-22T09:20:35.615Z,12.65
2017-11-22T09:23:04.032Z,12.49
2017-11-22T09:25:32.695Z,12.56
2017-11-22T09:28:01.102Z,12.60
2017-11-22T09:30:29.597Z,12.56
2017-11-22T09:32:58.912Z,12.59
2017-11-22T09:35:27.677Z,12.46
2017-11-22T09:37:56.061Z,12.26
2017-11-22T09:40:24.480Z,12.39
2017-11-22T09:42:53.735Z,12.43
2017-11-22T09:45:22.142Z,12.53
2017-11-22T09:47:50.579Z,12.72
2017-11-22T09:50:19.046Z,12.57
2017-11-22T09:52:47.434Z,12.67
2017-11-22T09:55:15.829Z,12.61
2017-11-22T09:57:45.434Z,12.68
2017-11-22T10:00:13.844Z,12.60
2017-11-22T10:02:42.269Z,12.54
2017-11-22T10:05:11.371Z,12.70
2017-11-22T10:08:59.877Z,12.80
2017-11-22T10:11:28.303Z,12.60
2017-11-22T10:13:56.693Z,12.54
2017-11-22T10:16:25.340Z,12.59
2017-11-22T10:18:54.720Z,12.77
2017-11-22T10:21:27.892Z,12.82
2017-11-22T10:23:56.313Z,12.55
2017-11-22T10:26:29.276Z,12.81
2017-11-22T10:29:18.493Z,12.76
2017-11-22T10:31:47.401Z,12.53
2017-11-22T10:34:17.991Z,12.79
2017-11-22T10:36:46.481Z,12.92
2017-11-22T10:39:14.866Z,12.73
2017-11-22T10:41:44.018Z,12.83
2017-11-22T10:44:12.456Z,12.81
2017-11-22T10:46:40.844Z,12.51
2017-11-22T10:49:09.233Z,12.71
2017-11-22T10:51:37.705Z,12.70
2017-11-22T10:54:06.126Z,12.68
2017-11-22T10:56:34.501Z,12.43
2017-11-22T10:59:03.089Z,12.41
2017-11-22T11:01:31.493Z,12.48
2017-11-22T11:04:00.294Z,12.78
2017-11-22T11:06:29.497Z,12.71
2017-11-22T11:08:57.882Z,12.57
2017-11-22T11:11:26.260Z,12.53
2017-11-22T11:13:54.708Z,12.53
2017-11-22T11:16:23.096Z,12.36
2017-11-22T11:18:51.735Z,12.47
2017-11-22T11:21:20.329Z,12.62
2017-11-22T11:23:48.756Z,12.69
2017-11-22T11:26:17.898Z,12.60
2017-11-22T11:28:46.314Z,12.74
2017-11-22T11:31:14.715Z,12.88
2017-11-22T11:33:43.648Z,12.92
2017-11-22T11:36:29.648Z,12.62
2017-11-22T11:38:58.032Z,12.47
2017-11-22T11:41:26.424Z,12.60
2017-11-22T11:43:55.122Z,12.51
2017-11-22T11:46:24.182Z,12.68
2017-11-22T11:48:52.588Z,12.37
2017-11-22T11:51:21.024Z,12.48
2017-11-22T11:53:49.445Z,12.19
2017-11-22T11:56:17.845Z,12.38
2017-11-22T11:58:46.463Z,12.22
2017-11-22T12:01:14.893Z,11.95
2017-11-22T12:03:44.113Z,12.33
2017-11-22T12:06:12.537Z,12.59
2017-11-22T12:08:40.916Z,12.61
2017-11-22T12:11:12.091Z,12.43
2017-11-22T12:13:40.521Z,12.48
2017-11-22T12:16:09.668Z,12.45
2017-11-22T12:18:38.072Z,12.54
2017-11-22T12:21:06.640Z,12.23
2017-11-22T12:23:35.852Z,12.36
2017-11-22T12:26:04.260Z,12.28
2017-11-22T12:28:32.692Z,12.54
2017-11-22T12:31:01.084Z,12.51
2017-11-22T12:33:29.470Z,12.40
2017-11-22T12:35:57.917Z,12.36
2017-11-22T12:38:26.428Z,12.36
2017-11-22T12:40:54.800Z,12.36
2017-11-22T12:43:23.422Z,12.28
2017-11-22T12:45:51.825Z,12.51
2017-11-22T12:48:20.249Z,12.52
2017-11-22T12:50:48.680Z,12.54
2017-11-22T12:53:17.065Z,12.27
2017-11-22T12:55:45.446Z,12.17
2017-11-22T12:58:13.855Z,12.30
2017-11-22T13:00:42.277Z,12.34
2017-11-22T13:03:11.426Z,12.53
2017-11-22T13:05:39.955Z,12.46
2017-11-22T13:08:08.347Z,12.48
2017-11-22T13:10:42.962Z,12.48
2017-11-22T13:13:12.120Z,12.44
2017-11-22T13:15:40.503Z,12.25
2017-11-22T13:18:08.936Z,12.41
2017-11-22T13:20:37.321Z,12.47
2017-11-22T13:23:05.709Z,12.66
2017-11-22T13:25:34.377Z,12.40
2017-11-22T13:28:03.519Z,12.43
2017-11-22T13:30:31.930Z,12.56
2017-11-22T13:33:00.369Z,12.61
2017-11-22T13:35:28.757Z,12.50
2017-11-22T13:37:57.149Z,12.65
2017-11-22T13:40:25.629Z,12.23
2017-11-22T13:42:54.032Z,12.40
2017-11-22T13:45:23.347Z,12.55
2017-11-22T13:47:53.876Z,12.76
2017-11-22T13:50:23.444Z,12.75
2017-11-22T13:52:51.868Z,12.64
2017-11-22T13:55:21.064Z,12.68
2017-11-22T13:57:50.207Z,12.84
2017-11-22T14:00:18.589Z,12.76
2017-11-22T14:02:47.169Z,12.90
2017-11-22T14:05:15.565Z,12.96
2017-11-22T14:07:44.776Z,12.88
2017-11-22T14:10:13.657Z,12.71
2017-11-22T14:12:42.039Z,12.76
2017-11-22T14:15:10.420Z,12.75
2017-11-22T14:17:38.832Z,12.76
2017-11-22T14:20:07.225Z,12.88
2017-11-22T14:22:35.603Z,12.93
2017-11-22T14:25:04.053Z,12.87
2017-11-22T14:27:32.438Z,12.96
2017-11-22T14:30:00.841Z,13.25
2017-11-22T14:32:30.599Z,13.06
2017-11-22T14:34:58.988Z,12.88
2017-11-22T14:37:27.553Z,12.86
2017-11-22T14:39:55.965Z,12.98
2017-11-22T14:42:24.364Z,13.19
2017-11-22T14:44:53.509Z,13.10
2017-11-22T14:47:21.978Z,13.14
2017-11-22T14:49:51.324Z,13.04
2017-11-22T14:52:19.791Z,13.00
2017-11-22T14:54:48.278Z,13.16
2017-11-22T14:57:16.717Z,13.36
2017-11-22T14:59:45.094Z,13.34
2017-11-22T15:02:13.542Z,13.27
2017-11-22T15:04:42.994Z,13.06
2017-11-22T15:07:11.402Z,12.93
2017-11-22T15:09:39.871Z,12.85
2017-11-22T15:12:08.273Z,12.94
2017-11-22T15:14:36.710Z,13.01
2017-11-22T15:17:05.302Z,12.93
2017-11-22T15:19:33.717Z,12.86
2017-11-22T15:22:02.129Z,12.82
2017-11-22T15:24:31.314Z,12.78
2017-11-22T15:26:59.706Z,12.66
2017-11-22T15:29:28.917Z,12.70
2017-11-22T15:31:57.362Z,12.65
2017-11-22T15:34:25.772Z,12.53
2017-11-22T15:36:54.153Z,12.79
2017-11-22T15:39:22.632Z,12.61
2017-11-22T15:41:51.031Z,12.44
2017-11-22T15:44:19.436Z,12.63
2017-11-22T15:46:47.870Z,12.41
2017-11-22T15:49:16.299Z,12.28
2017-11-22T15:51:44.679Z,12.27
2017-11-22T15:54:13.180Z,12.17
2017-11-22T15:56:41.582Z,12.29
2017-11-22T15:59:09.957Z,12.13
2017-11-22T16:01:39.218Z,12.18
2017-11-22T16:04:07.621Z,12.02
2017-11-22T16:06:36.035Z,12.11
2017-11-22T16:09:04.472Z,12.01
2017-11-22T16:11:32.866Z,11.78
2017-11-22T16:14:01.298Z,11.95
2017-11-22T16:16:29.714Z,11.99
2017-11-22T16:18:58.112Z,12.07
2017-11-22T16:21:26.500Z,12.09
2017-11-22T16:23:55.852Z,11.84
2017-11-22T16:26:24.996Z,11.87
2017-11-22T16:28:54.158Z,11.87
2017-11-22T16:31:22.595Z,11.94
2017-11-22T16:33:51.002Z,11.69
2017-11-22T16:36:19.773Z,11.67
2017-11-22T16:38:48.205Z,11.71
2017-11-22T16:41:16.646Z,11.78
2017-11-22T16:43:45.057Z,11.77
2017-11-22T16:46:13.614Z,11.75
2017-11-22T16:48:42.777Z,11.81
2017-11-22T16:51:11.190Z,11.74
2017-11-22T16:53:39.648Z,11.82
2017-11-22T16:56:08.071Z,11.57
2017-11-22T16:58:37.123Z,11.58
2017-11-22T17:01:05.547Z,11.57
2017-11-22T17:03:33.982Z,11.64
2017-11-22T17:06:03.144Z,11.64
2017-11-22T17:08:32.134Z,11.66
2017-11-22T17:11:00.589Z,11.83
2017-11-22T17:13:29.001Z,11.69
2017-11-22T17:15:57.450Z,11.59
2017-11-22T17:18:25.874Z,11.60
2017-11-22T17:20:55.037Z,11.52
2017-11-22T17:23:23.461Z,11.55
2017-11-22T17:25:53.623Z,11.54
2017-11-22T17:28:22.051Z,11.53
2017-11-22T17:30:50.733Z,11.44
2017-11-22T17:33:19.926Z,11.44
2017-11-22T17:35:48.353Z,11.38
2017-11-22T17:38:16.786Z,11.36
2017-11-22T17:40:45.172Z,11.44
2017-11-22T17:43:13.662Z,11.38
2017-11-22T17:45:42.970Z,11.42
2017-11-22T17:48:12.133Z,11.04
2017-11-22T17:50:40.585Z,10.93
2017-11-22T17:53:09.153Z,11.02
2017-11-22T17:55:37.582Z,10.95
2017-11-22T17:58:06.753Z,10.92
2017-11-22T18:00:35.257Z,10.93
2017-11-22T18:03:03.678Z,10.77
2017-11-22T18:05:32.066Z,10.85
2017-11-22T18:08:00.481Z,10.76
2017-11-22T18:10:28.869Z,10.73
2017-11-22T18:12:57.273Z,10.65
2017-11-22T18:15:25.790Z,10.73
2017-11-22T18:17:54.185Z,10.81
2017-11-22T18:20:22.558Z,10.76
2017-11-22T18:22:51.906Z,10.72
2017-11-22T18:25:20.347Z,10.73
2017-11-22T18:27:48.720Z,10.62
2017-11-22T18:30:17.377Z,10.60
2017-11-22T18:32:46.526Z,10.36
2017-11-22T18:35:14.960Z,10.53
2017-11-22T18:37:44.241Z,10.63
2017-11-22T18:40:12.638Z,10.55
2017-11-22T18:42:41.018Z,10.50
2017-11-22T18:45:10.626Z,10.58
2017-11-22T18:47:39.022Z,10.56
2017-11-22T18:50:07.413Z,10.60
2017-11-22T18:52:35.829Z,10.46
2017-11-22T18:55:04.213Z,10.52
2017-11-22T18:57:32.602Z,10.46
2017-11-22T19:00:01.094Z,10.27
2017-11-22T19:02:29.496Z,10.40
2017-11-22T19:04:58.678Z,10.33
2017-11-22T19:07:27.125Z,10.39
2017-11-22T19:09:55.606Z,10.43
2017-11-22T19:12:24.069Z,10.46
2017-11-22T19:14:52.554Z,10.28
2017-11-22T19:17:21.758Z,10.31
2017-11-22T19:19:50.283Z,10.23
2017-11-22T19:22:19.637Z,10.36
2017-11-22T19:24:48.057Z,10.28
2017-11-22T19:27:16.500Z,10.33
2017-11-22T19:29:45.048Z,10.37
2017-11-22T19:32:15.225Z,10.21
2017-11-22T19:34:44.553Z,10.29
2017-11-22T19:37:14.364Z,10.43
2017-11-22T19:39:43.943Z,10.55
2017-11-22T19:42:12.944Z,10.51
2017-11-22T19:44:41.653Z,10.50
2017-11-22T19:47:10.256Z,10.50
2017-11-22T19:49:39.420Z,10.37
2017-11-22T19:52:08.764Z,10.38
2017-11-22T19:54:37.254Z,10.46
2017-11-22T19:57:06.424Z,10.42
2017-11-22T19:59:35.011Z,10.38
2017-11-22T20:02:04.278Z,10.26
2017-11-22T20:04:33.839Z,10.29
2017-11-22T20:09:55.049Z,10.19
2017-11-22T20:12:25.924Z,10.24
2017-11-22T20:14:55.123Z,10.31
2017-11-22T20:17:23.614Z,10.31
2017-11-22T20:19:52.968Z,10.37
2017-11-22T20:22:22.165Z,10.35
2017-11-22T20:24:50.688Z,10.28
2017-11-22T20:27:20.603Z,10.40
2017-11-22T20:29:49.125Z,10.38
2017-11-22T20:32:17.642Z,10.43
2017-11-22T20:34:46.933Z,10.41
2017-11-22T20:37:16.505Z,10.37
2017-11-22T20:39:44.936Z,10.36
2017-11-22T20:42:13.675Z,10.20
2017-11-22T20:44:42.184Z,10.23
2017-11-22T20:47:10.644Z,10.28
2017-11-22T20:49:39.351Z,10.21
2017-11-22T20:52:07.847Z,10.11
2017-11-22T20:54:36.424Z,10.09
2017-11-22T20:57:05.720Z,10.02
2017-11-22T20:59:34.144Z,10.00
2017-11-22T21:02:02.573Z,9.97
2017-11-22T21:04:31.068Z,9.94
2017-11-22T21:07:00.344Z,10.05
2017-11-22T21:09:28.851Z,10.13
2017-11-22T21:11:58.435Z,10.00
2017-11-22T21:14:26.860Z,10.07
2017-11-22T21:16:56.127Z,9.94
2017-11-22T21:19:24.615Z,10.03
2017-11-22T21:21:54.198Z,9.99
2017-11-22T21:24:22.711Z,9.93
2017-11-22T21:26:51.177Z,9.92
2017-11-22T21:29:19.954Z,9.97
2017-11-22T21:31:48.429Z,9.71
2017-11-22T21:34:17.058Z,9.73
2017-11-22T21:36:45.503Z,9.79
2017-11-22T21:39:13.912Z,9.83
2017-11-22T21:41:42.392Z,9.78
2017-11-22T21:44:11.681Z,9.58
2017-11-22T21:46:40.182Z,9.66
2017-11-22T21:49:09.482Z,9.63
2017-11-22T21:51:37.972Z,9.76
2017-11-22T21:54:07.257Z,9.93
2017-11-22T21:56:36.630Z,9.98
2017-11-22T21:59:05.100Z,10.04
2017-11-22T22:01:33.619Z,9.92
2017-11-22T22:04:03.024Z,9.90
2017-11-22T22:06:31.605Z,9.71
2017-11-22T22:09:01.011Z,9.88
2017-11-22T22:11:30.386Z,9.92
2017-11-22T22:13:59.028Z,9.58
2017-11-22T22:16:27.591Z,9.61
2017-11-22T22:18:57.006Z,9.55
2017-11-22T22:21:27.002Z,9.47
2017-11-22T22:23:56.178Z,9.50
2017-11-22T22:26:24.617Z,9.39
2017-11-22T22:28:52.982Z,9.45
2017-11-22T22:31:21.372Z,9.40
2017-11-22T22:33:49.841Z,9.22
2017-11-22T22:36:18.989Z,9.40
2017-11-22T22:38:47.785Z,9.43
2017-11-22T22:41:16.342Z,9.20
2017-11-22T22:43:44.746Z,9.44
2017-11-22T22:46:13.143Z,9.39
2017-11-22T22:48:42.335Z,9.51
2017-11-22T22:51:10.738Z,9.43
2017-11-22T22:53:39.130Z,9.41
2017-11-22T22:56:07.652Z,9.58
2017-11-22T22:58:36.016Z,9.60
2017-11-22T23:01:04.413Z,9.51
2017-11-22T23:03:33.740Z,9.60
2017-11-22T23:06:02.140Z,9.64
2017-11-22T23:08:31.293Z,9.66
2017-11-22T23:10:59.748Z,9.69
2017-11-22T23:13:28.188Z,9.72
2017-11-22T23:15:56.566Z,9.63
2017-11-22T23:18:25.006Z,9.69
2017-11-22T23:20:53.389Z,9.80
2017-11-22T23:23:22.077Z,9.85
2017-11-22T23:25:50.668Z,9.92
2017-11-22T23:28:19.086Z,9.87
2017-11-22T23:30:48.238Z,9.90
2017-11-22T23:33:16.677Z,9.98
2017-11-22T23:35:45.844Z,10.04
2017-11-22T23:38:14.219Z,10.04
2017-11-22T23:40:42.654Z,10.01
2017-11-22T23:43:11.038Z,9.91
2017-11-22T23:45:39.407Z,10.05
2017-11-22T23:48:08.068Z,10.08
2017-11-22T23:50:37.215Z,10.14
2017-11-22T23:53:05.592Z,10.22
2017-11-22T23:55:34.902Z,10.19
2017-11-22T23:58:03.300Z,10.03
